createdAt,value
2023-09-08T00:01:58.462Z,13.65
2023-09-08T00:32:01.368Z,16.80
2023-09-08T01:02:06.012Z,13.90
2023-09-08T01:32:09.006Z,16.10
2023-09-08T02:02:13.140Z,14.83
2023-09-08T02:32:16.364Z,17.13
2023-09-08T03:02:19.700Z,19.37
2023-09-08T03:32:23.547Z,18.93
2023-09-08T04:02:28.372Z,15.27
2023-09-08T04:32:31.746Z,19.33
2023-09-08T05:02:36.755Z,24.13
2023-09-08T05:32:40.159Z,23.25
2023-09-08T06:02:43.589Z,23.33
2023-09-08T06:32:47.502Z,23.43
2023-09-08T07:02:50.914Z,18.57
2023-09-08T07:32:54.965Z,14.63
2023-09-08T08:02:58.204Z,13.03
2023-09-08T08:33:02.279Z,17.70
2023-09-08T09:03:14.768Z,10.80
2023-09-08T09:33:19.212Z,6.97
2023-09-08T10:03:23.585Z,8.43
2023-09-08T10:33:26.633Z,9.27
2023-09-08T11:03:30.680Z,8.43
2023-09-08T11:33:33.896Z,9.60
2023-09-08T12:03:38.835Z,8.13
2023-09-08T12:33:41.797Z,8.80
2023-09-08T13:03:45.828Z,9.47
2023-09-08T13:33:48.717Z,7.03
2023-09-08T14:33:58.737Z,7.63
2023-09-08T15:04:02.760Z,7.40
2023-09-08T15:34:06.004Z,8.45
2023-09-08T16:04:09.347Z,8.97
2023-09-08T16:34:12.855Z,8.90
2023-09-08T17:04:17.223Z,7.30
2023-09-08T17:34:21.093Z,7.57
2023-09-08T18:04:25.250Z,11.40
2023-09-08T18:34:28.595Z,11.95
2023-09-08T19:04:31.913Z,13.80
2023-09-08T19:34:34.803Z,16.13
2023-09-08T20:04:39.436Z,14.77
2023-09-08T20:34:42.396Z,15.37
2023-09-08T21:04:47.411Z,13.87
2023-09-08T21:34:50.297Z,16.37
2023-09-08T22:04:53.812Z,15.73
2023-09-08T22:34:56.899Z,15.80
2023-09-08T23:05:01.499Z,14.30
2023-09-08T23:35:04.571Z,15.60
